Airfield :
LOGIN :

Register | Disclaimer

   EN    FR    IT 

 










Legend :    VFR   Marginal VFR   IFR   Intensive IFR   Very Intensive IFR
Visi :
Ceiling :
>= 8 km
>= 3000ft
5 to 8 km
1000 to 3000 ft
1500m to 5 km
500 to 1000 ft
800 to 1500m
200 to 500 ft
< 800m
< 200 ft
Symbols :   Thunderstorms  Fog  Heavy snow  Heavy precipitations  Wind > 20 kt
SIGMETs :     Misc.  Thunderstorms  Icing  Turbulence  Mountain Waves  Volcanic Ashes






- Airport Elevation : 1325 ft
- IATA code : EBU


LFMH - St-Etienne Boutheon

CURRENT METAR :
  • 110300Z AUTO 00000KT CAVOK 01/M02 Q1017 NOSIG

EXPIRED METARs :
  • 110230Z AUTO 28004KT 190V300 CAVOK 03/M02 Q1018 NOSIG
  • 110200Z AUTO 18007KT CAVOK 03/M03 Q1018
  • 110130Z AUTO 17007KT CAVOK 03/M03 Q1019
  • 110100Z AUTO 17009KT CAVOK 03/M03 Q1019
  • 110030Z AUTO 17008KT CAVOK 03/M03 Q1019

TAF TAF LFMH
Valid from the 11 at 03:00 until the 12 at 03:00 UTC


110200Z 1103/1203 17007KT CAVOK
BECMG 1108/1110 BKN050
TEMPO 1109/1115 -RA BKN035
TEMPO 1114/1116 34007KT
TEMPO 1201/1203 -SHRA BKN035
ATIS : +33 4 77 36 17 51



MET'MAP, your aeronautical weather chart ! - Copyright ORBIFLY December 2007 - Disclaimer

ORBIFLY MET'MAP TEAM :

Programming & Development : Alexandra Zaïnal
Concept & original design : Baudouin d'Aumeries
Assistance for programming : Marc-Olivier Méhu
Technical & hardware support : Manuel Goepfert

Contact : metmap@orbifly.com




SOURCES & CREDITS :

   NOAA